TAF KPWM
AMD KPWM 090907Z 0909/1006 32008KT P6SM BKN045 FM092300 VRB03KT P6SM BKN150=
METAR KPWM
WC KPWM
WS KPWM
WV KPWM